sensor_id;sensor_type;location;lat;lon;timestamp;pressure;altitude;pressure_sealevel;temperature;humidity
54453;BME280;40363;52.270;10.546;2023-03-16T00:02:18;78469.09;;;-147.06;83.38
54453;BME280;40363;52.270;10.546;2023-03-16T00:04:44;78465.00;;;-147.06;83.33
54453;BME280;40363;52.270;10.546;2023-03-16T00:07:12;78475.28;;;-147.06;83.47
54453;BME280;40363;52.270;10.546;2023-03-16T00:09:39;78481.44;;;-147.06;83.65
54453;BME280;40363;52.270;10.546;2023-03-16T00:12:08;78491.72;;;-147.06;83.79
54453;BME280;40363;52.270;10.546;2023-03-16T00:14:40;78491.72;;;-147.06;83.75
54453;BME280;40363;52.270;10.546;2023-03-16T00:17:09;78489.66;;;-147.06;83.83
54453;BME280;40363;52.270;10.546;2023-03-16T00:19:44;78497.91;;;-147.06;83.84
54453;BME280;40363;52.270;10.546;2023-03-16T00:22:12;78499.94;;;-147.06;84.13
54453;BME280;40363;52.270;10.546;2023-03-16T00:24:40;78493.78;;;-147.06;83.83
54453;BME280;40363;52.270;10.546;2023-03-16T00:27:08;78493.78;;;-147.06;83.85
54453;BME280;40363;52.270;10.546;2023-03-16T00:29:39;78489.66;;;-147.06;83.67
54453;BME280;40363;52.270;10.546;2023-03-16T00:32:13;78465.00;;;-147.06;83.31
54453;BME280;40363;52.270;10.546;2023-03-16T00:34:40;78454.72;;;-147.06;82.63
54453;BME280;40363;52.270;10.546;2023-03-16T00:37:07;78454.72;;;-147.06;82.36
54453;BME280;40363;52.270;10.546;2023-03-16T00:39:34;78462.94;;;-147.06;82.69
54453;BME280;40363;52.270;10.546;2023-03-16T00:42:00;78465.00;;;-147.06;82.75
54453;BME280;40363;52.270;10.546;2023-03-16T00:44:27;78479.38;;;-147.06;83.05
54453;BME280;40363;52.270;10.546;2023-03-16T00:46:54;78477.34;;;-147.06;83.30
54453;BME280;40363;52.270;10.546;2023-03-16T00:49:22;78483.50;;;-147.06;83.19
54453;BME280;40363;52.270;10.546;2023-03-16T00:51:48;78483.50;;;-147.06;83.20
54453;BME280;40363;52.270;10.546;2023-03-16T00:54:15;78495.84;;;-147.06;83.53
54453;BME280;40363;52.270;10.546;2023-03-16T00:56:42;78502.00;;;-147.06;83.48
54453;BME280;40363;52.270;10.546;2023-03-16T00:59:08;78497.91;;;-147.06;83.51
54453;BME280;40363;52.270;10.546;2023-03-16T01:01:37;78504.06;;;-147.06;83.49
54453;BME280;40363;52.270;10.546;2023-03-16T01:04:04;78504.06;;;-147.06;83.44
54453;BME280;40363;52.270;10.546;2023-03-16T01:06:32;78499.94;;;-147.06;83.37
54453;BME280;40363;52.270;10.546;2023-03-16T01:08:58;78512.28;;;-147.06;83.48
54453;BME280;40363;52.270;10.546;2023-03-16T01:11:25;78518.47;;;-147.06;84.07
54453;BME280;40363;52.270;10.546;2023-03-16T01:13:51;78522.56;;;-147.06;84.12
54453;BME280;40363;52.270;10.546;2023-03-16T01:16:19;78512.28;;;-147.06;83.67
54453;BME280;40363;52.270;10.546;2023-03-16T01:18:47;78514.34;;;-147.06;83.65
54453;BME280;40363;52.270;10.546;2023-03-16T01:21:14;78508.19;;;-147.06;83.69
54453;BME280;40363;52.270;10.546;2023-03-16T01:23:42;78483.50;;;-147.06;83.18
54453;BME280;40363;52.270;10.546;2023-03-16T01:26:09;78479.38;;;-147.06;82.93
54453;BME280;40363;52.270;10.546;2023-03-16T01:28:36;78477.34;;;-147.06;82.72
54453;BME280;40363;52.270;10.546;2023-03-16T01:31:05;78462.94;;;-147.06;82.32
54453;BME280;40363;52.270;10.546;2023-03-16T01:33:32;78471.16;;;-147.06;82.19
54453;BME280;40363;52.270;10.546;2023-03-16T01:36:00;78475.28;;;-147.06;82.16
54453;BME280;40363;52.270;10.546;2023-03-16T01:38:27;78462.94;;;-147.06;82.13
54453;BME280;40363;52.270;10.546;2023-03-16T01:40:55;78471.16;;;-147.06;82.42
54453;BME280;40363;52.270;10.546;2023-03-16T01:43:24;78456.78;;;-147.06;81.92
54453;BME280;40363;52.270;10.546;2023-03-16T01:46:09;78460.88;;;-147.06;82.13
54453;BME280;40363;52.270;10.546;2023-03-16T01:48:45;78450.59;;;-147.06;81.73
54453;BME280;40363;52.270;10.546;2023-03-16T01:51:15;78446.50;;;-147.06;81.80
54453;BME280;40363;52.270;10.546;2023-03-16T01:53:46;78444.44;;;-147.06;81.40
54453;BME280;40363;52.270;10.546;2023-03-16T01:56:19;78442.38;;;-147.06;81.26
54453;BME280;40363;52.270;10.546;2023-03-16T01:58:49;78452.66;;;-147.06;81.24
54453;BME280;40363;52.270;10.546;2023-03-16T02:01:18;78456.78;;;-147.06;81.09
54453;BME280;40363;52.270;10.546;2023-03-16T02:03:45;78465.00;;;-147.06;81.47
54453;BME280;40363;52.270;10.546;2023-03-16T02:06:15;78446.50;;;-147.06;81.34
54453;BME280;40363;52.270;10.546;2023-03-16T02:08:44;78446.50;;;-147.06;80.91
54453;BME280;40363;52.270;10.546;2023-03-16T02:11:13;78448.53;;;-147.06;80.75
54453;BME280;40363;52.270;10.546;2023-03-16T02:13:43;78440.31;;;-147.06;80.16
54453;BME280;40363;52.270;10.546;2023-03-16T02:16:11;78432.09;;;-147.06;79.82
54453;BME280;40363;52.270;10.546;2023-03-16T02:18:43;78425.94;;;-147.06;78.82
54453;BME280;40363;52.270;10.546;2023-03-16T02:21:14;78413.59;;;-147.06;78.31
54453;BME280;40363;52.270;10.546;2023-03-16T02:23:44;78415.63;;;-147.06;77.44
54453;BME280;40363;52.270;10.546;2023-03-16T02:26:16;78403.31;;;-147.06;77.72
54453;BME280;40363;52.270;10.546;2023-03-16T02:28:59;78409.47;;;-147.06;76.73
54453;BME280;40363;52.270;10.546;2023-03-16T02:31:33;78393.03;;;-147.06;76.21
54453;BME280;40363;52.270;10.546;2023-03-16T02:34:00;78395.06;;;-147.06;76.32
54453;BME280;40363;52.270;10.546;2023-03-16T02:36:27;78403.31;;;-147.06;76.53
54453;BME280;40363;52.270;10.546;2023-03-16T02:38:55;78397.13;;;-147.06;76.20
54453;BME280;40363;52.270;10.546;2023-03-16T02:41:21;78411.53;;;-147.06;75.76
54453;BME280;40363;52.270;10.546;2023-03-16T02:43:53;78405.34;;;-147.06;75.69
54453;BME280;40363;52.270;10.546;2023-03-16T02:46:22;78388.91;;;-147.06;75.33
54453;BME280;40363;52.270;10.546;2023-03-16T02:48:57;78393.03;;;-147.06;75.28
54453;BME280;40363;52.270;10.546;2023-03-16T02:51:27;78407.41;;;-147.06;75.25
54453;BME280;40363;52.270;10.546;2023-03-16T02:53:53;78399.19;;;-147.06;75.40
54453;BME280;40363;52.270;10.546;2023-03-16T02:56:21;78419.75;;;-147.06;75.02
54453;BME280;40363;52.270;10.546;2023-03-16T02:58:47;78419.75;;;-147.06;75.75
54453;BME280;40363;52.270;10.546;2023-03-16T03:01:14;78409.47;;;-147.06;75.27
54453;BME280;40363;52.270;10.546;2023-03-16T03:03:40;78411.53;;;-147.06;75.33
54453;BME280;40363;52.270;10.546;2023-03-16T03:06:09;78405.34;;;-147.06;75.26
54453;BME280;40363;52.270;10.546;2023-03-16T03:08:36;78401.25;;;-147.06;75.39
54453;BME280;40363;52.270;10.546;2023-03-16T03:11:03;78397.13;;;-147.06;75.58
54453;BME280;40363;52.270;10.546;2023-03-16T03:13:30;78407.41;;;-147.06;76.09
54453;BME280;40363;52.270;10.546;2023-03-16T03:15:56;78425.94;;;-147.06;76.05
54453;BME280;40363;52.270;10.546;2023-03-16T03:18:23;78432.09;;;-147.06;76.17
54453;BME280;40363;52.270;10.546;2023-03-16T03:20:50;78444.44;;;-147.06;76.36
54453;BME280;40363;52.270;10.546;2023-03-16T03:23:18;78444.44;;;-147.06;76.09
54453;BME280;40363;52.270;10.546;2023-03-16T03:25:45;78446.50;;;-147.06;76.19
54453;BME280;40363;52.270;10.546;2023-03-16T03:28:12;78448.53;;;-147.06;75.86
54453;BME280;40363;52.270;10.546;2023-03-16T03:30:39;78425.94;;;-147.06;75.51
54453;BME280;40363;52.270;10.546;2023-03-16T03:33:06;78438.25;;;-147.06;75.90
54453;BME280;40363;52.270;10.546;2023-03-16T03:35:32;78460.88;;;-147.06;76.29
54453;BME280;40363;52.270;10.546;2023-03-16T03:37:59;78458.81;;;-147.06;76.55
54453;BME280;40363;52.270;10.546;2023-03-16T03:40:27;78450.59;;;-147.06;76.58
54453;BME280;40363;52.270;10.546;2023-03-16T03:42:53;78462.94;;;-147.06;76.64
54453;BME280;40363;52.270;10.546;2023-03-16T03:45:20;78475.28;;;-147.06;76.30
54453;BME280;40363;52.270;10.546;2023-03-16T03:47:46;78475.28;;;-147.06;76.77
54453;BME280;40363;52.270;10.546;2023-03-16T03:50:13;78487.63;;;-147.06;76.60
54453;BME280;40363;52.270;10.546;2023-03-16T03:52:40;78483.50;;;-147.06;76.43
54453;BME280;40363;52.270;10.546;2023-03-16T03:55:08;78493.78;;;-147.06;76.69
54453;BME280;40363;52.270;10.546;2023-03-16T03:57:36;78491.72;;;-147.06;76.11
54453;BME280;40363;52.270;10.546;2023-03-16T04:00:04;78485.56;;;-147.06;76.09
54453;BME280;40363;52.270;10.546;2023-03-16T04:02:34;78477.34;;;-147.06;76.29
54453;BME280;40363;52.270;10.546;2023-03-16T04:05:00;78473.22;;;-147.06;76.34
54453;BME280;40363;52.270;10.546;2023-03-16T04:07:27;78483.50;;;-147.06;76.04
54453;BME280;40363;52.270;10.546;2023-03-16T04:09:53;78481.44;;;-147.06;75.60
54453;BME280;40363;52.270;10.546;2023-03-16T04:12:20;78485.56;;;-147.06;75.70
54453;BME280;40363;52.270;10.546;2023-03-16T04:14:48;78489.66;;;-147.06;75.55
54453;BME280;40363;52.270;10.546;2023-03-16T04:17:15;78473.22;;;-147.06;75.50
54453;BME280;40363;52.270;10.546;2023-03-16T04:19:42;78491.72;;;-147.06;75.39
54453;BME280;40363;52.270;10.546;2023-03-16T04:22:09;78495.84;;;-147.06;74.88
54453;BME280;40363;52.270;10.546;2023-03-16T04:24:37;78483.50;;;-147.06;74.44
54453;BME280;40363;52.270;10.546;2023-03-16T04:27:03;78487.63;;;-147.06;74.88
54453;BME280;40363;52.270;10.546;2023-03-16T04:29:30;78495.84;;;-147.06;74.34
54453;BME280;40363;52.270;10.546;2023-03-16T04:31:58;78483.50;;;-147.06;73.99
54453;BME280;40363;52.270;10.546;2023-03-16T04:34:25;78487.63;;;-147.06;72.60
54453;BME280;40363;52.270;10.546;2023-03-16T04:36:52;78471.16;;;-147.06;72.21
54453;BME280;40363;52.270;10.546;2023-03-16T04:39:20;78475.28;;;-147.06;71.91
54453;BME280;40363;52.270;10.546;2023-03-16T04:41:47;78471.16;;;-147.06;72.16
54453;BME280;40363;52.270;10.546;2023-03-16T04:44:14;78491.72;;;-147.06;70.08
54453;BME280;40363;52.270;10.546;2023-03-16T04:46:41;78483.50;;;-147.06;69.92
54453;BME280;40363;52.270;10.546;2023-03-16T04:49:09;78479.38;;;-147.06;69.49
54453;BME280;40363;52.270;10.546;2023-03-16T04:51:37;78465.00;;;-147.06;69.10
54453;BME280;40363;52.270;10.546;2023-03-16T04:54:05;78462.94;;;-147.06;69.25
54453;BME280;40363;52.270;10.546;2023-03-16T04:56:31;78477.34;;;-147.06;69.34
54453;BME280;40363;52.270;10.546;2023-03-16T04:58:58;78477.34;;;-147.06;68.45
54453;BME280;40363;52.270;10.546;2023-03-16T05:01:25;78483.50;;;-147.06;67.57
54453;BME280;40363;52.270;10.546;2023-03-16T05:03:52;78491.72;;;-147.06;68.53
54453;BME280;40363;52.270;10.546;2023-03-16T05:06:20;78481.44;;;-147.06;68.60
54453;BME280;40363;52.270;10.546;2023-03-16T05:08:46;78489.66;;;-147.06;66.90
54453;BME280;40363;52.270;10.546;2023-03-16T05:11:13;78491.72;;;-147.06;66.75
54453;BME280;40363;52.270;10.546;2023-03-16T05:13:39;78487.63;;;-147.06;66.33
54453;BME280;40363;52.270;10.546;2023-03-16T05:16:06;78491.72;;;-147.06;66.18
54453;BME280;40363;52.270;10.546;2023-03-16T05:18:32;78489.66;;;-147.06;65.44
54453;BME280;40363;52.270;10.546;2023-03-16T05:20:59;78471.16;;;-147.06;65.62
54453;BME280;40363;52.270;10.546;2023-03-16T05:23:27;78467.06;;;-147.06;66.08
54453;BME280;40363;52.270;10.546;2023-03-16T05:25:53;78458.81;;;-147.06;65.40
54453;BME280;40363;52.270;10.546;2023-03-16T05:28:24;78467.06;;;-147.06;65.01
54453;BME280;40363;52.270;10.546;2023-03-16T05:30:50;78460.88;;;-147.06;64.45
54453;BME280;40363;52.270;10.546;2023-03-16T05:33:17;78462.94;;;-147.06;64.68
54453;BME280;40363;52.270;10.546;2023-03-16T05:35:43;78473.22;;;-147.06;64.05
54453;BME280;40363;52.270;10.546;2023-03-16T05:38:10;78458.81;;;-147.06;64.26
54453;BME280;40363;52.270;10.546;2023-03-16T05:40:38;78446.50;;;-147.06;64.31
54453;BME280;40363;52.270;10.546;2023-03-16T05:43:05;78440.31;;;-147.06;63.92
54453;BME280;40363;52.270;10.546;2023-03-16T05:45:31;78425.94;;;-147.06;63.72
54453;BME280;40363;52.270;10.546;2023-03-16T05:47:58;78427.97;;;-147.06;63.73
54453;BME280;40363;52.270;10.546;2023-03-16T05:50:24;78427.97;;;-147.06;62.52
54453;BME280;40363;52.270;10.546;2023-03-16T05:52:52;78409.47;;;-147.06;62.88
54453;BME280;40363;52.270;10.546;2023-03-16T05:55:19;78421.81;;;-147.06;61.86
54453;BME280;40363;52.270;10.546;2023-03-16T05:57:47;78425.94;;;-147.06;61.93
54453;BME280;40363;52.270;10.546;2023-03-16T06:00:15;78393.03;;;-147.06;61.22
54453;BME280;40363;52.270;10.546;2023-03-16T06:02:43;78407.41;;;-147.06;60.84
54453;BME280;40363;52.270;10.546;2023-03-16T06:05:12;78403.31;;;-147.06;60.30
54453;BME280;40363;52.270;10.546;2023-03-16T06:07:39;78378.63;;;-147.06;59.91
54453;BME280;40363;52.270;10.546;2023-03-16T06:10:06;78368.34;;;-147.06;60.11
54453;BME280;40363;52.270;10.546;2023-03-16T06:12:33;78370.41;;;-147.06;60.60
54453;BME280;40363;52.270;10.546;2023-03-16T06:15:02;78356.00;;;-147.06;59.84
54453;BME280;40363;52.270;10.546;2023-03-16T06:17:31;78339.56;;;-147.06;59.33
54453;BME280;40363;52.270;10.546;2023-03-16T06:19:58;78316.94;;;-147.06;59.17
54453;BME280;40363;52.270;10.546;2023-03-16T06:22:26;78286.09;;;-147.06;58.28
54453;BME280;40363;52.270;10.546;2023-03-16T06:24:54;78273.75;;;-147.06;58.28
54453;BME280;40363;52.270;10.546;2023-03-16T06:27:20;78257.31;;;-147.06;58.10
54453;BME280;40363;52.270;10.546;2023-03-16T06:29:50;78230.56;;;-147.06;57.98
54453;BME280;40363;52.270;10.546;2023-03-16T06:32:18;78247.03;;;-147.06;58.70
54453;BME280;40363;52.270;10.546;2023-03-16T06:34:46;78220.28;;;-147.06;58.01
54453;BME280;40363;52.270;10.546;2023-03-16T06:37:12;78199.72;;;-147.06;58.15
54453;BME280;40363;52.270;10.546;2023-03-16T06:39:39;78232.63;;;-147.06;58.84
54453;BME280;40363;52.270;10.546;2023-03-16T06:42:06;78203.84;;;-147.06;58.23
54453;BME280;40363;52.270;10.546;2023-03-16T06:44:32;78162.72;;;-147.06;57.94
54453;BME280;40363;52.270;10.546;2023-03-16T06:46:59;78140.09;;;-147.06;58.01
54453;BME280;40363;52.270;10.546;2023-03-16T06:49:27;78144.22;;;-147.06;58.74
54453;BME280;40363;52.270;10.546;2023-03-16T06:51:53;78096.91;;;-147.06;57.81
54453;BME280;40363;52.270;10.546;2023-03-16T06:54:20;78049.63;;;-147.06;57.03
54453;BME280;40363;52.270;10.546;2023-03-16T06:56:47;78018.78;;;-147.06;56.86
54453;BME280;40363;52.270;10.546;2023-03-16T06:59:13;78002.34;;;-147.06;55.52
54453;BME280;40363;52.270;10.546;2023-03-16T07:01:40;78084.59;;;-147.06;56.89
54453;BME280;40363;52.270;10.546;2023-03-16T07:04:08;77979.72;;;-147.06;55.75
54453;BME280;40363;52.270;10.546;2023-03-16T07:06:36;77971.50;;;-147.06;55.45
54453;BME280;40363;52.270;10.546;2023-03-16T07:09:03;78029.06;;;-147.06;56.06
54453;BME280;40363;52.270;10.546;2023-03-16T07:11:29;78064.03;;;-147.06;57.22
54453;BME280;40363;52.270;10.546;2023-03-16T07:13:56;78022.91;;;-147.06;57.02
54453;BME280;40363;52.270;10.546;2023-03-16T07:16:23;78014.66;;;-147.06;56.84
54453;BME280;40363;52.270;10.546;2023-03-16T07:18:50;78051.69;;;-147.06;57.40
54453;BME280;40363;52.270;10.546;2023-03-16T07:21:16;78053.75;;;-147.06;57.66
54453;BME280;40363;52.270;10.546;2023-03-16T07:23:45;77969.44;;;-147.06;56.90
54453;BME280;40363;52.270;10.546;2023-03-16T07:26:11;78027.00;;;-147.06;56.95
54453;BME280;40363;52.270;10.546;2023-03-16T07:28:39;78049.63;;;-147.06;57.95
54453;BME280;40363;52.270;10.546;2023-03-16T07:31:06;77955.03;;;-147.06;56.83
54453;BME280;40363;52.270;10.546;2023-03-16T07:33:34;77924.19;;;-147.06;55.70
54453;BME280;40363;52.270;10.546;2023-03-16T07:36:01;77953.00;;;-147.06;56.22
54453;BME280;40363;52.270;10.546;2023-03-16T07:38:29;77922.16;;;-147.06;55.86
54453;BME280;40363;52.270;10.546;2023-03-16T07:40:58;77969.44;;;-147.06;56.66
54453;BME280;40363;52.270;10.546;2023-03-16T07:43:25;77915.97;;;-147.06;55.62
54453;BME280;40363;52.270;10.546;2023-03-16T07:45:52;77985.88;;;-147.06;55.62
54453;BME280;40363;52.270;10.546;2023-03-16T07:48:18;77895.41;;;-147.06;54.99
54453;BME280;40363;52.270;10.546;2023-03-16T07:50:46;77833.72;;;-147.06;53.82
54453;BME280;40363;52.270;10.546;2023-03-16T07:53:12;77780.28;;;-147.06;52.67
54453;BME280;40363;52.270;10.546;2023-03-16T07:55:39;77772.06;;;-147.06;51.47
54453;BME280;40363;52.270;10.546;2023-03-16T07:58:07;77681.59;;;-147.06;50.34
54453;BME280;40363;52.270;10.546;2023-03-16T08:00:35;77658.97;;;-147.06;49.15
54453;BME280;40363;52.270;10.546;2023-03-16T08:03:02;77722.72;;;-147.06;49.35
54453;BME280;40363;52.270;10.546;2023-03-16T08:05:29;77667.19;;;-147.06;49.16
54453;BME280;40363;52.270;10.546;2023-03-16T08:07:57;77780.28;;;-147.06;50.08
54453;BME280;40363;52.270;10.546;2023-03-16T08:10:25;77603.47;;;-147.06;48.44
54453;BME280;40363;52.270;10.546;2023-03-16T08:12:52;77632.25;;;-147.06;47.12
54453;BME280;40363;52.270;10.546;2023-03-16T08:15:20;77634.31;;;-147.06;47.54
54453;BME280;40363;52.270;10.546;2023-03-16T08:17:47;77646.63;;;-147.06;46.75
54453;BME280;40363;52.270;10.546;2023-03-16T08:20:14;77422.53;;;-147.06;44.88
54453;BME280;40363;52.270;10.546;2023-03-16T08:22:41;77439.00;;;-147.06;44.80
54453;BME280;40363;52.270;10.546;2023-03-16T08:25:10;77426.66;;;-147.06;44.46
54453;BME280;40363;52.270;10.546;2023-03-16T08:27:37;77397.88;;;-147.06;43.88
54453;BME280;40363;52.270;10.546;2023-03-16T08:30:05;77471.88;;;-147.06;45.85
54453;BME280;40363;52.270;10.546;2023-03-16T08:32:37;77517.13;;;-147.06;46.09
54453;BME280;40363;52.270;10.546;2023-03-16T08:35:04;77525.34;;;-147.06;45.38
54453;BME280;40363;52.270;10.546;2023-03-16T08:37:31;77327.97;;;-147.06;42.86
54453;BME280;40363;52.270;10.546;2023-03-16T08:39:58;77282.75;;;-147.06;42.39
54453;BME280;40363;52.270;10.546;2023-03-16T08:42:24;77373.19;;;-147.06;42.84
54453;BME280;40363;52.270;10.546;2023-03-16T08:44:53;77241.63;;;-147.06;42.57
54453;BME280;40363;52.270;10.546;2023-03-16T08:47:20;77147.06;;;-147.06;40.94
54453;BME280;40363;52.270;10.546;2023-03-16T08:49:48;77161.47;;;-147.06;40.10
54453;BME280;40363;52.270;10.546;2023-03-16T08:52:16;77305.34;;;-147.06;40.69
54453;BME280;40363;52.270;10.546;2023-03-16T08:54:43;77426.66;;;-147.06;42.16
54453;BME280;40363;52.270;10.546;2023-03-16T08:57:09;77311.53;;;-147.06;42.03
54453;BME280;40363;52.270;10.546;2023-03-16T08:59:36;77369.09;;;-147.06;41.67
54453;BME280;40363;52.270;10.546;2023-03-16T09:02:03;77251.91;;;-147.06;41.66
54453;BME280;40363;52.270;10.546;2023-03-16T09:04:29;77233.41;;;-147.06;39.83
54453;BME280;40363;52.270;10.546;2023-03-16T09:06:58;77391.72;;;-147.06;41.71
54453;BME280;40363;52.270;10.546;2023-03-16T09:09:24;77424.59;;;-147.06;42.47
54453;BME280;40363;52.270;10.546;2023-03-16T09:11:51;77282.75;;;-147.06;41.10
54453;BME280;40363;52.270;10.546;2023-03-16T09:14:18;77379.38;;;-147.06;42.20
54453;BME280;40363;52.270;10.546;2023-03-16T09:16:44;77301.25;;;-147.06;41.58
54453;BME280;40363;52.270;10.546;2023-03-16T09:19:11;77323.88;;;-147.06;42.09
54453;BME280;40363;52.270;10.546;2023-03-16T09:21:37;77508.88;;;-147.06;44.35
54453;BME280;40363;52.270;10.546;2023-03-16T09:24:06;77469.81;;;-147.06;45.45
54453;BME280;40363;52.270;10.546;2023-03-16T09:26:33;77323.88;;;-147.06;42.99
54453;BME280;40363;52.270;10.546;2023-03-16T09:29:00;77262.19;;;-147.06;42.33
54453;BME280;40363;52.270;10.546;2023-03-16T09:31:27;77379.38;;;-147.06;43.01
54453;BME280;40363;52.270;10.546;2023-03-16T09:33:54;77377.31;;;-147.06;43.82
54453;BME280;40363;52.270;10.546;2023-03-16T09:36:21;77325.91;;;-147.06;44.05
54453;BME280;40363;52.270;10.546;2023-03-16T09:38:47;77430.75;;;-147.06;45.25
54453;BME280;40363;52.270;10.546;2023-03-16T09:41:37;77369.09;;;-147.06;45.12
54453;BME280;40363;52.270;10.546;2023-03-16T09:44:15;77243.69;;;-147.06;43.49
54453;BME280;40363;52.270;10.546;2023-03-16T09:46:47;77315.63;;;-147.06;43.95
54453;BME280;40363;52.270;10.546;2023-03-16T09:49:17;77369.09;;;-147.06;45.01
54453;BME280;40363;52.270;10.546;2023-03-16T09:51:50;77352.66;;;-147.06;43.31
54453;BME280;40363;52.270;10.546;2023-03-16T09:54:23;77434.88;;;-147.06;43.85
54453;BME280;40363;52.270;10.546;2023-03-16T09:56:56;77315.63;;;-147.06;42.78
54453;BME280;40363;52.270;10.546;2023-03-16T09:59:23;77258.06;;;-147.06;43.07
54453;BME280;40363;52.270;10.546;2023-03-16T10:02:03;77309.47;;;-147.06;42.52
54453;BME280;40363;52.270;10.546;2023-03-16T10:04:40;77229.28;;;-147.06;42.48
54453;BME280;40363;52.270;10.546;2023-03-16T10:07:19;77249.84;;;-147.06;40.81
54453;BME280;40363;52.270;10.546;2023-03-16T10:09:53;77194.34;;;-147.06;39.62
54453;BME280;40363;52.270;10.546;2023-03-16T10:12:25;77276.56;;;-147.06;38.68
54453;BME280;40363;52.270;10.546;2023-03-16T10:14:57;77313.59;;;-147.06;38.25
54453;BME280;40363;52.270;10.546;2023-03-16T10:17:32;77301.25;;;-147.06;38.51
54453;BME280;40363;52.270;10.546;2023-03-16T10:20:04;77356.75;;;-147.06;38.47
54453;BME280;40363;52.270;10.546;2023-03-16T10:22:36;77332.09;;;-147.06;38.16
54453;BME280;40363;52.270;10.546;2023-03-16T10:25:06;77323.88;;;-147.06;37.33
54453;BME280;40363;52.270;10.546;2023-03-16T10:27:40;77348.53;;;-147.06;38.03
54453;BME280;40363;52.270;10.546;2023-03-16T10:30:19;77346.47;;;-147.06;37.81
54453;BME280;40363;52.270;10.546;2023-03-16T10:32:47;77194.34;;;-147.06;37.51
54453;BME280;40363;52.270;10.546;2023-03-16T10:35:24;77081.28;;;-147.06;36.03
54453;BME280;40363;52.270;10.546;2023-03-16T10:37:52;77120.34;;;-147.06;35.48
54453;BME280;40363;52.270;10.546;2023-03-16T10:40:20;77260.13;;;-147.06;35.41
54453;BME280;40363;52.270;10.546;2023-03-16T10:42:48;77151.19;;;-147.06;35.47
54453;BME280;40363;52.270;10.546;2023-03-16T10:45:23;77138.84;;;-147.06;33.94
54453;BME280;40363;52.270;10.546;2023-03-16T10:47:52;77056.63;;;-147.06;33.12
54453;BME280;40363;52.270;10.546;2023-03-16T10:50:24;77079.22;;;-147.06;32.09
54453;BME280;40363;52.270;10.546;2023-03-16T10:52:53;77151.19;;;-147.06;32.47
54453;BME280;40363;52.270;10.546;2023-03-16T10:55:23;77025.78;;;-147.06;31.60
54453;BME280;40363;52.270;10.546;2023-03-16T10:57:53;76972.34;;;-147.06;31.13
54453;BME280;40363;52.270;10.546;2023-03-16T11:00:22;76999.06;;;-147.06;31.60
54453;BME280;40363;52.270;10.546;2023-03-16T11:02:52;77124.44;;;-147.06;32.54
54453;BME280;40363;52.270;10.546;2023-03-16T11:05:26;77157.34;;;-147.06;33.26
54453;BME280;40363;52.270;10.546;2023-03-16T11:07:58;77163.50;;;-147.06;33.09
54453;BME280;40363;52.270;10.546;2023-03-16T11:10:28;77204.63;;;-147.06;32.97
54453;BME280;40363;52.270;10.546;2023-03-16T11:13:02;77136.78;;;-147.06;32.98
54453;BME280;40363;52.270;10.546;2023-03-16T11:15:35;77142.97;;;-147.06;32.76
54453;BME280;40363;52.270;10.546;2023-03-16T11:18:03;77210.78;;;-147.06;33.77
54453;BME280;40363;52.270;10.546;2023-03-16T11:20:31;77167.63;;;-147.06;34.03
54453;BME280;40363;52.270;10.546;2023-03-16T11:23:00;77204.63;;;-147.06;34.18
54453;BME280;40363;52.270;10.546;2023-03-16T11:25:28;77171.72;;;-147.06;34.37
54453;BME280;40363;52.270;10.546;2023-03-16T11:28:05;77175.84;;;-147.06;33.48
54453;BME280;40363;52.270;10.546;2023-03-16T11:30:40;77192.28;;;-147.06;34.25
54453;BME280;40363;52.270;10.546;2023-03-16T11:33:09;77293.03;;;-147.06;34.01
54453;BME280;40363;52.270;10.546;2023-03-16T11:35:42;77243.69;;;-147.06;34.62
54453;BME280;40363;52.270;10.546;2023-03-16T11:38:14;77313.59;;;-147.06;33.04
54453;BME280;40363;52.270;10.546;2023-03-16T11:40:52;77204.63;;;-147.06;32.48
54453;BME280;40363;52.270;10.546;2023-03-16T11:43:43;77245.75;;;-147.06;32.71
54453;BME280;40363;52.270;10.546;2023-03-16T11:46:14;77221.06;;;-147.06;32.87
54453;BME280;40363;52.270;10.546;2023-03-16T11:48:55;77184.06;;;-147.06;32.98
54453;BME280;40363;52.270;10.546;2023-03-16T11:51:33;77142.97;;;-147.06;32.87
54453;BME280;40363;52.270;10.546;2023-03-16T11:54:09;77142.97;;;-147.06;31.34
54453;BME280;40363;52.270;10.546;2023-03-16T11:56:45;77192.28;;;-147.06;31.77
54453;BME280;40363;52.270;10.546;2023-03-16T11:59:30;77173.78;;;-147.06;31.40
54453;BME280;40363;52.270;10.546;2023-03-16T12:02:19;77192.28;;;-147.06;31.76
54453;BME280;40363;52.270;10.546;2023-03-16T12:05:19;77151.19;;;-147.06;31.91
54453;BME280;40363;52.270;10.546;2023-03-16T12:07:53;77163.50;;;-147.06;31.67
54453;BME280;40363;52.270;10.546;2023-03-16T12:10:25;77188.19;;;-147.06;31.68
54453;BME280;40363;52.270;10.546;2023-03-16T12:13:08;77136.78;;;-147.06;31.83
54453;BME280;40363;52.270;10.546;2023-03-16T12:15:44;77114.19;;;-147.06;31.74
54453;BME280;40363;52.270;10.546;2023-03-16T12:18:16;77128.56;;;-147.06;31.25
54453;BME280;40363;52.270;10.546;2023-03-16T12:20:49;77126.50;;;-147.06;31.25
54453;BME280;40363;52.270;10.546;2023-03-16T12:23:19;77132.69;;;-147.06;31.68
54453;BME280;40363;52.270;10.546;2023-03-16T12:25:49;77112.13;;;-147.06;31.20
54453;BME280;40363;52.270;10.546;2023-03-16T12:28:21;77124.44;;;-147.06;30.91
54453;BME280;40363;52.270;10.546;2023-03-16T12:30:57;77212.84;;;-147.06;31.90
54453;BME280;40363;52.270;10.546;2023-03-16T12:33:34;77175.84;;;-147.06;31.31
54453;BME280;40363;52.270;10.546;2023-03-16T12:36:21;77179.97;;;-147.06;31.23
54453;BME280;40363;52.270;10.546;2023-03-16T12:38:58;77138.84;;;-147.06;31.79
54453;BME280;40363;52.270;10.546;2023-03-16T12:41:32;77138.84;;;-147.06;31.61